Time;durP1;ratioP1;P1;durP2;ratioP2;P2;SDS_P1;SDS_P2;PMS_P1;PMS_P2;Temp;Humidity;BMP_temperature;BMP_pressure;BME280_temperature;BME280_humidity;BME280_pressure;Samples;Min_cycle;Max_cycle;Signal;HPM_P1;HPM_P2
2023/05/05 00:01:26;93091.00;0.31;161.64;0.00;0.00;0.62;;;;;20.30;1.00;;;;;;2557869;56;1077;-86
2023/05/05 00:03:53;175245.00;0.58;303.30;0.00;0.00;0.62;;;;;20.20;1.00;;;;;;2555638;56;1356;-84
2023/05/05 00:06:21;346510.00;1.16;597.86;17167.00;0.06;30.36;;;;;20.20;1.00;;;;;;2555570;56;1073;-84
2023/05/05 00:08:48;184887.00;0.62;319.90;0.00;0.00;0.62;;;;;20.20;1.00;;;;;;2555611;56;1055;-85
2023/05/05 00:11:15;185510.00;0.62;320.98;0.00;0.00;0.62;;;;;20.20;1.00;;;;;;2555637;56;1159;-84
2023/05/05 00:13:42;335751.00;1.12;579.37;0.00;0.00;0.62;;;;;20.20;1.00;;;;;;2555488;56;1369;-85
2023/05/05 00:16:08;309791.00;1.03;534.75;36027.00;0.12;63.01;;;;;20.10;1.00;;;;;;2557778;56;1112;-85
2023/05/05 00:18:36;185200.00;0.62;320.44;0.00;0.00;0.62;;;;;20.00;1.00;;;;;;2555591;56;1072;-89
2023/05/05 00:21:03;565921.00;1.89;975.41;47602.00;0.16;83.04;;;;;19.90;1.00;;;;;;2555439;56;1957;-89
2023/05/05 00:23:31;143934.00;0.48;249.35;0.00;0.00;0.62;;;;;19.50;1.00;;;;;;2555440;56;1317;-85
2023/05/05 00:25:58;192245.00;0.64;332.57;44147.00;0.15;77.06;;;;;19.40;1.00;;;;;;2557778;56;966;-85
2023/05/05 00:28:25;457630.00;1.53;788.91;105396.00;0.35;182.89;;;;;19.40;1.00;;;;;;2557689;56;930;-85
2023/05/05 00:30:52;230068.00;0.77;397.67;0.00;0.00;0.62;;;;;19.30;1.00;;;;;;2557760;56;2138;-84
2023/05/05 00:33:19;465973.00;1.55;803.26;26212.00;0.09;46.03;;;;;19.30;1.00;;;;;;2555465;56;1352;-85
2023/05/05 00:35:46;279892.00;0.93;483.35;0.00;0.00;0.62;;;;;19.40;1.00;;;;;;2555623;56;1090;-85
2023/05/05 00:38:13;467704.00;1.56;806.24;21841.00;0.07;38.46;;;;;19.30;1.00;;;;;;2557705;56;1171;-85
2023/05/05 00:40:41;210856.00;0.70;364.61;0.00;0.00;0.62;;;;;19.40;1.00;;;;;;2555697;56;1953;-86
2023/05/05 00:43:08;223985.00;0.75;387.20;0.00;0.00;0.62;;;;;19.40;1.00;;;;;;2557570;56;2345;-84
2023/05/05 00:45:37;213320.00;0.71;368.85;0.00;0.00;0.62;;;;;19.50;1.00;;;;;;2555621;56;1100;-86
2023/05/05 00:48:06;620674.00;2.07;1069.93;0.00;0.00;0.62;;;;;19.40;1.00;;;;;;2555401;56;1063;-86
2023/05/05 00:50:33;266011.00;0.89;459.48;0.00;0.00;0.62;;;;;19.40;1.00;;;;;;2557746;56;1103;-84
2023/05/05 00:53:02;188227.00;0.63;325.66;0.00;0.00;0.62;;;;;19.30;1.00;;;;;;2557793;56;1540;-86
2023/05/05 00:55:30;180951.00;0.60;313.13;0.00;0.00;0.62;;;;;19.30;1.00;;;;;;2555490;56;1107;-85
2023/05/05 00:57:59;193324.00;0.64;334.43;0.00;0.00;0.62;;;;;19.30;1.00;;;;;;2557920;56;1131;-85
2023/05/05 01:00:27;408990.00;1.36;705.26;63299.00;0.21;110.18;;;;;19.50;1.00;;;;;;2557702;56;1981;-89
2023/05/05 01:02:54;244848.00;0.82;423.09;0.00;0.00;0.62;;;;;19.60;1.00;;;;;;2557788;56;1364;-85
2023/05/05 01:05:23;2251510.00;7.51;4154.20;1409551.00;4.70;2474.05;;;;;19.60;1.00;;;;;;2555331;56;1020;-87
2023/05/05 01:08:06;1860893.00;6.20;3342.49;912028.00;3.04;1577.26;;;;;19.60;1.00;;;;;;2555320;56;1075;-85
2023/05/05 01:10:39;4925150.00;16.42;12380.65;2602334.00;8.67;4943.39;;;;;19.50;1.00;;;;;;2557781;56;1088;-85
2023/05/05 01:13:22;1490206.00;4.97;2624.70;282913.00;0.94;488.55;;;;;19.50;1.00;;;;;;2555444;56;1422;-86
2023/05/05 01:15:55;171419.00;0.57;296.71;26418.00;0.09;46.38;;;;;19.40;1.00;;;;;;2555515;56;1134;-85
2023/05/05 01:18:32;123703.00;0.41;214.47;0.00;0.00;0.62;;;;;19.50;1.00;;;;;;2555535;56;1100;-83
2023/05/05 01:21:45;261615.00;0.87;451.93;0.00;0.00;0.62;;;;;19.40;1.00;;;;;;2557567;56;1946;-84
2023/05/05 01:24:35;109303.00;0.36;189.63;0.00;0.00;0.62;;;;;19.10;1.00;;;;;;2557409;56;1348;-85
2023/05/05 01:27:30;449653.00;1.50;775.19;22813.00;0.08;40.14;;;;;19.20;1.00;;;;;;2557165;56;1174;-85
2023/05/05 01:30:10;101115.00;0.34;175.50;0.00;0.00;0.62;;;;;19.30;1.00;;;;;;2557352;56;2138;-85
2023/05/05 01:32:43;86199.00;0.29;149.74;0.00;0.00;0.62;;;;;19.50;1.00;;;;;;2555468;56;1102;-85
2023/05/05 01:35:15;75713.00;0.25;131.63;0.00;0.00;0.62;;;;;19.60;1.00;;;;;;2557595;56;1209;-85
2023/05/05 01:37:47;100463.00;0.33;174.37;0.00;0.00;0.62;;;;;19.50;1.00;;;;;;2555311;56;1083;-85
2023/05/05 01:40:17;101038.00;0.34;175.36;0.00;0.00;0.62;;;;;19.30;1.00;;;;;;2557566;56;1906;-84
2023/05/05 01:42:46;139454.00;0.46;241.63;0.00;0.00;0.62;;;;;19.40;1.00;;;;;;2555637;56;1323;-85
2023/05/05 01:45:15;293148.00;0.98;506.14;62094.00;0.21;108.10;;;;;19.40;1.00;;;;;;2557337;56;1145;-84
2023/05/05 01:47:45;54630.00;0.18;95.19;0.00;0.00;0.62;;;;;19.50;1.00;;;;;;2555467;56;1107;-84
2023/05/05 01:50:14;254550.00;0.85;439.78;33699.00;0.11;58.99;;;;;19.50;1.00;;;;;;2555291;56;1060;-84
2023/05/05 01:52:44;88800.00;0.30;154.24;0.00;0.00;0.62;;;;;19.30;1.00;;;;;;2557504;56;1331;-84
2023/05/05 01:55:12;92647.00;0.31;160.88;0.00;0.00;0.62;;;;;19.30;1.00;;;;;;2557490;56;1086;-86
2023/05/05 01:57:42;57799.00;0.19;100.67;0.00;0.00;0.62;;;;;19.40;1.00;;;;;;2557625;56;1662;-86
2023/05/05 02:00:10;75463.00;0.25;131.20;0.00;0.00;0.62;;;;;19.40;1.00;;;;;;2557673;56;1954;-85
2023/05/05 02:02:40;141564.00;0.47;245.27;0.00;0.00;0.62;;;;;19.40;1.00;;;;;;2557784;56;1183;-85
2023/05/05 02:05:10;191018.00;0.64;330.46;33934.00;0.11;59.39;;;;;19.40;1.00;;;;;;2555486;56;1108;-85
2023/05/05 02:07:37;209387.00;0.70;362.08;29083.00;0.10;51.00;;;;;19.60;1.00;;;;;;2557846;56;2393;-84
2023/05/05 02:10:06;173586.00;0.58;300.44;0.00;0.00;0.62;;;;;19.70;1.00;;;;;;2557784;56;900;-83
2023/05/05 02:12:37;340551.00;1.14;587.62;115053.00;0.38;199.55;;;;;19.60;1.00;;;;;;2557553;56;2371;-85
2023/05/05 02:15:06;173519.00;0.58;300.33;0.00;0.00;0.62;;;;;19.60;1.00;;;;;;2557741;56;1361;-84
2023/05/05 02:17:33;163566.00;0.55;283.18;0.00;0.00;0.62;;;;;19.40;1.00;;;;;;2555288;56;1075;-84
2023/05/05 02:20:03;42952.00;0.14;75.00;0.00;0.00;0.62;;;;;19.10;1.00;;;;;;2557664;56;1962;-85
2023/05/05 02:22:32;135366.00;0.45;234.58;0.00;0.00;0.62;;;;;18.80;1.00;;;;;;2555457;56;1142;-84
2023/05/05 02:24:59;331526.00;1.11;572.11;76718.00;0.26;133.37;;;;;18.50;1.00;;;;;;2557600;56;1281;-88
2023/05/05 02:27:28;134811.00;0.45;233.62;0.00;0.00;0.62;;;;;18.30;1.00;;;;;;2555519;56;1142;-85
2023/05/05 02:30:01;121334.00;0.40;210.38;0.00;0.00;0.62;;;;;18.00;1.00;;;;;;2555462;56;1045;-84
2023/05/05 02:32:33;157572.00;0.53;272.86;14881.00;0.05;26.40;;;;;18.00;1.00;;;;;;2555330;56;1608;-84
2023/05/05 02:35:04;215983.00;0.72;373.43;50063.00;0.17;87.30;;;;;18.00;1.00;;;;;;2555740;56;1415;-84
2023/05/05 02:37:35;82999.00;0.28;144.22;0.00;0.00;0.62;;;;;18.10;1.00;;;;;;2555655;56;1111;-84
2023/05/05 02:40:05;140067.00;0.47;242.69;0.00;0.00;0.62;;;;;18.30;1.00;;;;;;2557648;56;1989;-85
2023/05/05 02:42:37;134455.00;0.45;233.01;0.00;0.00;0.62;;;;;18.30;1.00;;;;;;2557485;56;1676;-84
2023/05/05 02:45:10;2435259.00;8.12;4559.73;897584.00;2.99;1551.88;;;;;18.20;1.00;;;;;;2557692;56;1632;-85
2023/05/05 02:47:38;360115.00;1.20;621.25;77440.00;0.26;134.62;;;;;18.20;1.00;;;;;;2555699;56;1013;-84
2023/05/05 02:50:06;51750.00;0.17;90.21;0.00;0.00;0.62;;;;;18.20;1.00;;;;;;2555504;56;1071;-87
2023/05/05 02:52:36;255147.00;0.85;440.80;0.00;0.00;0.62;;;;;18.10;1.00;;;;;;2555343;56;1095;-85
2023/05/05 02:55:04;109768.00;0.37;190.43;0.00;0.00;0.62;;;;;18.00;1.00;;;;;;2555400;56;1336;-84
2023/05/05 02:57:37;37845.00;0.13;66.16;0.00;0.00;0.62;;;;;17.90;1.00;;;;;;2557707;56;973;-85
2023/05/05 03:00:12;108849.00;0.36;188.84;0.00;0.00;0.62;;;;;17.90;1.00;;;;;;2557580;56;1910;-84
2023/05/05 03:02:44;20261.00;0.07;35.72;0.00;0.00;0.62;;;;;18.00;1.00;;;;;;2555604;56;1347;-83
2023/05/05 03:05:17;0.00;0.00;0.62;0.00;0.00;0.62;;;;;18.10;1.00;;;;;;2555522;56;1148;-84
2023/05/05 03:07:53;216985.00;0.72;375.16;54835.00;0.18;95.55;;;;;18.20;1.00;;;;;;2555801;56;1131;-86
2023/05/05 03:10:25;129422.00;0.43;224.33;0.00;0.00;0.62;;;;;18.10;1.00;;;;;;2555865;56;1059;-85
2023/05/05 03:12:55;327415.00;1.09;565.04;30047.00;0.10;52.66;;;;;18.10;1.00;;;;;;2555714;56;1349;-84
2023/05/05 03:15:28;23907.00;0.08;42.04;0.00;0.00;0.62;;;;;18.00;1.00;;;;;;2557650;56;1099;-85
2023/05/05 03:17:58;59863.00;0.20;104.24;0.00;0.00;0.62;;;;;18.10;1.00;;;;;;2555147;56;1127;-85
2023/05/05 03:20:26;155395.00;0.52;269.10;0.00;0.00;0.62;;;;;18.10;1.00;;;;;;2555271;56;1956;-85
2023/05/05 03:22:55;57900.00;0.19;100.85;0.00;0.00;0.62;;;;;18.10;1.00;;;;;;2555309;56;1346;-85
2023/05/05 03:25:22;346309.00;1.15;597.52;124647.00;0.42;216.10;;;;;18.30;1.00;;;;;;2557198;56;1081;-83
2023/05/05 03:27:49;142352.00;0.47;246.63;23001.00;0.08;40.47;;;;;18.30;1.00;;;;;;2555295;56;1166;-84
2023/05/05 03:30:19;28168.00;0.09;49.41;0.00;0.00;0.62;;;;;18.30;1.00;;;;;;2557166;56;1646;-83
2023/05/05 03:32:45;68642.00;0.23;119.41;0.00;0.00;0.62;;;;;18.30;1.00;;;;;;2557253;56;1606;-84
2023/05/05 03:35:12;43123.00;0.14;75.29;0.00;0.00;0.62;;;;;18.40;1.00;;;;;;2555203;56;1132;-84
2023/05/05 03:37:39;36296.00;0.12;63.48;0.00;0.00;0.62;;;;;18.20;1.00;;;;;;2555242;56;1127;-84
2023/05/05 03:40:08;47230.00;0.16;82.40;0.00;0.00;0.62;;;;;18.30;1.00;;;;;;2555039;56;1903;-84
2023/05/05 03:42:35;144033.00;0.48;249.52;4687.00;0.02;8.74;;;;;18.20;1.00;;;;;;2557259;56;1052;-84
2023/05/05 03:45:02;114338.00;0.38;198.31;0.00;0.00;0.62;;;;;18.10;1.00;;;;;;2557239;56;2164;-84
2023/05/05 03:47:29;42986.00;0.14;75.05;0.00;0.00;0.62;;;;;18.30;1.00;;;;;;2555072;56;1101;-83
2023/05/05 03:49:56;74138.00;0.25;128.91;0.00;0.00;0.62;;;;;18.30;1.00;;;;;;2555158;56;1100;-83
2023/05/05 03:52:23;43462.00;0.14;75.88;0.00;0.00;0.62;;;;;18.30;1.00;;;;;;2557445;56;1079;-83
2023/05/05 03:54:50;133923.00;0.45;232.09;0.00;0.00;0.62;;;;;18.20;1.00;;;;;;2557150;56;1302;-84
2023/05/05 03:57:18;106618.00;0.36;184.99;0.00;0.00;0.62;;;;;18.20;1.00;;;;;;2555173;56;1114;-84
2023/05/05 03:59:45;93419.00;0.31;162.21;0.00;0.00;0.62;;;;;18.30;1.00;;;;;;2555222;56;1103;-84
2023/05/05 04:02:12;106996.00;0.36;185.65;0.00;0.00;0.62;;;;;18.30;1.00;;;;;;2554978;56;1971;-83
2023/05/05 04:04:39;196003.00;0.65;339.04;9697.00;0.03;17.42;;;;;18.30;1.00;;;;;;2557491;56;1731;-84
2023/05/05 04:07:06;51967.00;0.17;90.59;0.00;0.00;0.62;;;;;18.30;1.00;;;;;;2555390;56;1106;-85
2023/05/05 04:09:32;34885.00;0.12;61.04;0.00;0.00;0.62;;;;;18.40;1.00;;;;;;2555537;56;1063;-86
2023/05/05 04:11:59;74278.00;0.25;129.15;0.00;0.00;0.62;;;;;18.50;1.00;;;;;;2555456;56;1094;-84
2023/05/05 04:14:28;65819.00;0.22;114.53;0.00;0.00;0.62;;;;;18.60;1.00;;;;;;2555699;56;1329;-84
2023/05/05 04:16:54;374122.00;1.25;645.32;69475.00;0.23;120.85;;;;;18.80;1.00;;;;;;2557532;56;1138;-84
2023/05/05 04:19:21;28456.00;0.09;49.91;0.00;0.00;0.62;;;;;18.80;1.00;;;;;;2555352;56;1462;-84
2023/05/05 04:21:49;354544.00;1.18;611.67;55763.00;0.19;97.15;;;;;18.90;1.00;;;;;;2557690;56;1953;-86
2023/05/05 04:24:18;51866.00;0.17;90.41;0.00;0.00;0.62;;;;;19.10;1.00;;;;;;2557732;56;1344;-84
2023/05/05 04:26:44;55543.00;0.19;96.77;0.00;0.00;0.62;;;;;19.10;1.00;;;;;;2555665;56;1123;-84
2023/05/05 04:29:11;122042.00;0.41;211.60;0.00;0.00;0.62;;;;;19.10;1.00;;;;;;2557686;56;1155;-85
2023/05/05 04:31:39;2918.00;0.01;5.68;0.00;0.00;0.62;;;;;19.00;1.00;;;;;;2555597;56;1099;-85
2023/05/05 04:34:06;123637.00;0.41;214.36;0.00;0.00;0.62;;;;;18.90;1.00;;;;;;2557593;56;1649;-84
2023/05/05 04:36:33;245.00;0.00;1.04;0.00;0.00;0.62;;;;;19.00;1.00;;;;;;2555631;56;1218;-84
2023/05/05 04:39:00;35260.00;0.12;61.69;0.00;0.00;0.62;;;;;18.90;1.00;;;;;;2555604;56;1259;-84
2023/05/05 04:41:27;221988.00;0.74;383.76;33718.00;0.11;59.02;;;;;19.00;1.00;;;;;;2555324;56;1956;-85
2023/05/05 04:43:55;273849.00;0.91;472.96;101399.00;0.34;175.99;;;;;19.10;1.00;;;;;;2555309;56;1276;-83
2023/05/05 04:46:22;46634.00;0.16;81.36;0.00;0.00;0.62;;;;;19.30;1.00;;;;;;2554850;56;1068;-83
2023/05/05 04:48:50;3214058.00;10.71;6488.16;162399.00;0.54;281.17;;;;;19.50;1.00;;;;;;2555187;56;1114;-83
2023/05/05 04:51:17;972546.00;3.24;1683.91;175072.00;0.58;303.00;;;;;19.40;1.00;;;;;;2557849;56;1119;-84
2023/05/05 04:53:44;1011607.00;3.37;1753.04;0.00;0.00;0.62;;;;;19.60;1.00;;;;;;2557765;56;1259;-85
2023/05/05 04:56:10;166511.00;0.56;288.26;0.00;0.00;0.62;;;;;19.60;1.00;;;;;;2555235;56;1115;-86
2023/05/05 04:58:37;29249.00;0.10;51.28;0.00;0.00;0.62;;;;;19.70;1.00;;;;;;2555295;56;1142;-86
2023/05/05 05:01:04;3202.00;0.01;6.17;0.00;0.00;0.62;;;;;19.60;1.00;;;;;;2557702;56;1956;-85
2023/05/05 05:03:31;100704.00;0.34;174.79;0.00;0.00;0.62;;;;;19.50;1.00;;;;;;2555611;56;1264;-84
2023/05/05 05:06:00;203205.00;0.68;351.44;31789.00;0.11;55.68;;;;;19.60;1.00;;;;;;2557953;56;1036;-84
2023/05/05 05:08:27;25449.00;0.08;44.70;0.00;0.00;0.62;;;;;19.60;1.00;;;;;;2557504;56;1765;-84
2023/05/05 05:10:54;43210.00;0.14;75.44;0.00;0.00;0.62;;;;;19.50;1.00;;;;;;2557902;56;1115;-84
2023/05/05 05:13:21;103469.00;0.34;179.56;0.00;0.00;0.62;;;;;19.50;1.00;;;;;;2557659;56;1360;-84
2023/05/05 05:15:48;254821.00;0.85;440.24;82447.00;0.27;143.26;;;;;19.50;1.00;;;;;;2557464;56;1155;-84
2023/05/05 05:18:14;483838.00;1.61;834.00;132960.00;0.44;230.43;;;;;19.60;1.00;;;;;;2555130;56;1074;-84
2023/05/05 05:20:42;36324.00;0.12;63.53;0.00;0.00;0.62;;;;;19.60;1.00;;;;;;2555084;56;1903;-84
2023/05/05 05:23:10;239817.00;0.80;414.44;44324.00;0.15;77.37;;;;;19.80;1.00;;;;;;2555366;56;1386;-85
2023/05/05 05:25:37;25450.00;0.08;44.71;0.00;0.00;0.62;;;;;19.70;1.00;;;;;;2557839;56;1115;-85
2023/05/05 05:28:04;31996.00;0.11;56.04;0.00;0.00;0.62;;;;;19.90;1.00;;;;;;2555421;56;1119;-84
2023/05/05 05:30:31;64240.00;0.21;111.81;0.00;0.00;0.62;;;;;20.10;1.00;;;;;;2555332;56;1134;-83
2023/05/05 05:32:58;6919.00;0.02;12.61;0.00;0.00;0.62;;;;;20.00;1.00;;;;;;2557134;56;1251;-84
2023/05/05 05:35:25;382269.00;1.27;659.33;76407.00;0.25;132.83;;;;;19.90;1.00;;;;;;2557455;56;1825;-84
2023/05/05 05:37:52;15723.00;0.05;27.86;0.00;0.00;0.62;;;;;20.00;1.00;;;;;;2557240;56;1104;-84
2023/05/05 05:40:20;354553.00;1.18;611.69;67201.00;0.22;116.92;;;;;20.10;1.00;;;;;;2555186;56;1137;-85
2023/05/05 05:42:47;90795.00;0.30;157.68;0.00;0.00;0.62;;;;;20.40;1.00;;;;;;2557475;56;1914;-87
2023/05/05 05:45:14;147309.00;0.49;255.17;0.00;0.00;0.62;;;;;21.70;1.00;;;;;;2557535;56;1063;-84
2023/05/05 05:47:41;61457.00;0.20;107.00;0.00;0.00;0.62;;;;;23.30;1.00;;;;;;2555323;56;1111;-85
2023/05/05 05:50:08;14526.00;0.05;25.79;0.00;0.00;0.62;;;;;25.10;1.00;;;;;;2555507;56;1115;-84
2023/05/05 05:52:36;0.00;0.00;0.62;0.00;0.00;0.62;;;;;26.40;1.00;;;;;;2555923;56;1183;-85
2023/05/05 05:55:03;0.00;0.00;0.62;0.00;0.00;0.62;;;;;27.20;1.00;;;;;;2555791;56;1397;-84
2023/05/05 05:57:31;11766.00;0.04;21.01;0.00;0.00;0.62;;;;;27.50;1.00;;;;;;2555633;56;1142;-84
2023/05/05 05:59:58;421827.00;1.41;727.33;82560.00;0.28;143.46;;;;;28.20;1.00;;;;;;2555675;56;1118;-86
2023/05/05 06:02:26;0.00;0.00;0.62;0.00;0.00;0.62;;;;;27.80;1.00;;;;;;2557887;56;1960;-87
2023/05/05 06:04:53;220244.00;0.73;380.76;0.00;0.00;0.62;;;;;27.20;1.00;;;;;;2555817;56;1391;-86
2023/05/05 06:07:20;68880.00;0.23;119.82;0.00;0.00;0.62;;;;;27.00;1.00;;;;;;2555893;56;1132;-85
2023/05/05 06:09:46;94363.00;0.31;163.84;29567.00;0.10;51.83;;;;;26.90;1.00;;;;;;2558113;56;1119;-87
2023/05/05 06:12:13;0.00;0.00;0.62;0.00;0.00;0.62;;;;;26.80;1.00;;;;;;2557931;56;2143;-85
2023/05/05 06:14:42;55450.00;0.18;96.61;0.00;0.00;0.62;;;;;26.40;1.00;;;;;;2555782;56;1360;-86
2023/05/05 06:17:09;57410.00;0.19;100.00;0.00;0.00;0.62;;;;;26.10;1.00;;;;;;2555781;56;1171;-84
2023/05/05 06:19:38;0.00;0.00;0.62;0.00;0.00;0.62;;;;;25.60;1.00;;;;;;2555830;56;1139;-87
2023/05/05 06:22:05;71279.00;0.24;123.97;0.00;0.00;0.62;;;;;26.10;1.00;;;;;;2555749;56;1899;-85
2023/05/05 06:24:32;161359.00;0.54;279.38;46335.00;0.15;80.85;;;;;27.40;1.00;;;;;;2557933;56;1277;-85
2023/05/05 06:26:59;15911.00;0.05;28.19;0.00;0.00;0.62;;;;;28.60;1.00;;;;;;2555886;56;1274;-87
2023/05/05 06:29:26;0.00;0.00;0.62;0.00;0.00;0.62;;;;;28.90;1.00;;;;;;2555754;56;1043;-83
2023/05/05 06:31:55;0.00;0.00;0.62;0.00;0.00;0.62;;;;;29.30;1.00;;;;;;2557891;56;1110;-86
2023/05/05 06:34:22;49765.00;0.17;86.78;0.00;0.00;0.62;;;;;29.80;1.00;;;;;;2557477;56;1288;-88
2023/05/05 06:36:48;11510.00;0.04;20.57;0.00;0.00;0.62;;;;;30.10;1.00;;;;;;2555623;56;1123;-87
2023/05/05 06:39:15;42555.00;0.14;74.31;0.00;0.00;0.62;;;;;30.00;1.00;;;;;;2555658;56;1064;-85
2023/05/05 06:41:42;96095.00;0.32;166.83;0.00;0.00;0.62;;;;;29.40;1.00;;;;;;2555915;56;2000;-85
2023/05/05 06:44:10;134340.00;0.45;232.81;0.00;0.00;0.62;;;;;29.00;1.00;;;;;;2557755;56;1675;-85
2023/05/05 06:49:06;5540.00;0.02;10.22;0.00;0.00;0.62;;;;;30.00;1.00;;;;;;2560827;55;936;-88
2023/05/05 06:51:33;401470.00;1.34;692.33;7364.00;0.02;13.38;;;;;30.90;1.00;;;;;;2560572;55;1040;-87
2023/05/05 06:54:00;1237727.00;4.13;2158.58;88464.00;0.29;153.66;;;;;31.80;1.00;;;;;;2560040;55;1311;-85
2023/05/05 06:56:26;0.00;0.00;0.62;0.00;0.00;0.62;;;;;32.20;1.00;;;;;;2555571;56;1120;-86
2023/05/05 06:58:54;16530.00;0.06;29.26;0.00;0.00;0.62;;;;;32.20;1.00;;;;;;2555479;56;1199;-84
2023/05/05 07:01:21;22705.00;0.08;39.95;0.00;0.00;0.62;;;;;31.10;1.00;;;;;;2557579;55;1914;-87
2023/05/05 07:03:48;111666.00;0.37;193.70;7207.00;0.02;13.11;;;;;30.10;1.00;;;;;;2553682;56;3833;-87
2023/05/05 07:06:16;50918.00;0.17;88.77;0.00;0.00;0.62;;;;;29.20;1.00;;;;;;2557551;56;1064;-83
2023/05/05 07:08:43;62732.00;0.21;109.20;0.00;0.00;0.62;;;;;28.60;1.00;;;;;;2555386;56;1106;-88
2023/05/05 07:11:10;24124.00;0.08;42.41;0.00;0.00;0.62;;;;;27.60;1.00;;;;;;2557691;56;1065;-86
2023/05/05 07:13:37;42335.00;0.14;73.93;0.00;0.00;0.62;;;;;27.70;1.00;;;;;;2555266;56;1288;-85
2023/05/05 07:18:31;95204.00;0.32;165.29;0.00;0.00;0.62;;;;;27.10;1.00;;;;;;2550628;56;851;-86
2023/05/05 07:20:58;155501.00;0.52;269.29;0.00;0.00;0.62;;;;;27.20;1.00;;;;;;2550330;56;1076;-88
2023/05/05 07:23:26;15117.00;0.05;26.81;0.00;0.00;0.62;;;;;27.30;1.00;;;;;;2552364;56;2377;-86
2023/05/05 07:25:54;46077.00;0.15;80.40;0.00;0.00;0.62;;;;;26.80;1.00;;;;;;2552511;56;2367;-87
2023/05/05 07:28:22;290331.00;0.97;501.30;61183.00;0.20;106.52;;;;;26.60;1.00;;;;;;2552490;56;1650;-86
2023/05/05 07:30:49;28493.00;0.09;49.97;0.00;0.00;0.62;;;;;26.70;1.00;;;;;;2550299;56;1111;-86
2023/05/05 07:33:17;134351.00;0.45;232.83;0.00;0.00;0.62;;;;;26.80;1.00;;;;;;2552438;56;1582;-84
2023/05/05 07:38:12;162222.00;0.54;280.87;0.00;0.00;0.62;;;;;26.60;1.00;;;;;;2560831;55;900;-86
2023/05/05 07:43:09;110940.00;0.37;192.45;0.00;0.00;0.62;;;;;26.20;1.00;;;;;;2555677;56;1914;-88
2023/05/05 07:45:35;38924.00;0.13;68.03;0.00;0.00;0.62;;;;;26.30;1.00;;;;;;2555684;56;1123;-85
2023/05/05 07:48:02;18382.00;0.06;32.47;0.00;0.00;0.62;;;;;26.20;1.00;;;;;;2557756;56;1657;-85
2023/05/05 07:50:29;60622.00;0.20;105.55;0.00;0.00;0.62;;;;;26.10;1.00;;;;;;2557872;56;1662;-86
2023/05/05 07:52:56;208379.00;0.69;360.35;55913.00;0.19;97.41;;;;;25.90;1.00;;;;;;2557933;56;1342;-87
2023/05/05 07:55:23;18606.00;0.06;32.86;0.00;0.00;0.62;;;;;25.60;1.00;;;;;;2555828;56;1145;-85
2023/05/05 07:57:50;155034.00;0.52;268.48;0.00;0.00;0.62;;;;;25.20;1.00;;;;;;2557996;56;1147;-85
2023/05/05 08:00:20;80638.00;0.27;140.14;0.00;0.00;0.62;;;;;25.00;1.00;;;;;;2555706;56;1132;-87
2023/05/05 08:02:47;110207.00;0.37;191.19;0.00;0.00;0.62;;;;;25.00;1.00;;;;;;2557805;56;1952;-87
2023/05/05 08:05:15;162995.00;0.54;282.20;0.00;0.00;0.62;;;;;25.10;1.00;;;;;;2558051;56;990;-86
2023/05/05 08:07:42;44642.00;0.15;77.92;0.00;0.00;0.62;;;;;25.00;1.00;;;;;;2555864;56;1127;-87
2023/05/05 08:10:10;47547.00;0.16;82.94;0.00;0.00;0.62;;;;;25.10;1.00;;;;;;2557998;56;1626;-88
2023/05/05 08:12:37;266300.00;0.89;459.98;48885.00;0.16;85.26;;;;;24.90;1.00;;;;;;2558023;56;1162;-85
2023/05/05 08:15:05;96172.00;0.32;166.96;0.00;0.00;0.62;;;;;24.80;1.00;;;;;;2555673;56;1345;-87
2023/05/05 08:17:46;61060.00;0.20;106.31;0.00;0.00;0.62;;;;;24.50;1.00;;;;;;2555850;56;1087;-85
2023/05/05 08:20:13;150351.00;0.50;260.41;0.00;0.00;0.62;;;;;24.20;1.00;;;;;;2555680;56;935;-86
2023/05/05 08:22:41;51537.00;0.17;89.84;0.00;0.00;0.62;;;;;24.20;1.00;;;;;;2558096;56;1948;-86
2023/05/05 08:25:09;926307.00;3.09;1602.37;78036.00;0.26;135.64;;;;;24.30;1.00;;;;;;2558190;56;896;-87
2023/05/05 08:27:37;1186051.00;3.95;2065.02;51631.00;0.17;90.01;;;;;24.20;1.00;;;;;;2558140;56;999;-89
2023/05/05 08:30:05;121381.00;0.40;210.46;5834.00;0.02;10.73;;;;;24.10;1.00;;;;;;2556004;56;1048;-87
2023/05/05 08:32:32;38491.00;0.13;67.28;0.00;0.00;0.62;;;;;24.10;1.00;;;;;;2555967;56;1001;-85
2023/05/05 08:35:02;211984.00;0.71;366.55;60210.00;0.20;104.84;;;;;24.00;1.00;;;;;;2555793;56;1298;-86
2023/05/05 08:37:29;60326.00;0.20;105.04;0.00;0.00;0.62;;;;;23.90;1.00;;;;;;2555813;56;959;-85
2023/05/05 08:39:56;25584.00;0.09;44.94;0.00;0.00;0.62;;;;;24.00;1.00;;;;;;2555764;56;1126;-85
2023/05/05 08:42:23;37201.00;0.12;65.05;0.00;0.00;0.62;;;;;24.10;1.00;;;;;;2557807;56;1910;-86
2023/05/05 08:44:51;81666.00;0.27;141.91;0.00;0.00;0.62;;;;;24.00;1.00;;;;;;2555695;56;1316;-85
2023/05/05 08:47:18;48776.00;0.16;85.07;0.00;0.00;0.62;;;;;23.90;1.00;;;;;;2555586;56;1079;-84
2023/05/05 08:54:50;75668.00;0.25;131.55;0.00;0.00;0.62;;;;;23.70;1.00;;;;;;2556327;56;1250;-86
2023/05/05 08:57:32;54139.00;0.18;94.34;0.00;0.00;0.62;;;;;23.70;1.00;;;;;;2555460;56;1107;-86
2023/05/05 09:00:02;120697.00;0.40;209.28;0.00;0.00;0.62;;;;;23.60;1.00;;;;;;2555577;56;1110;-85
2023/05/05 09:02:30;176472.00;0.59;305.41;0.00;0.00;0.62;;;;;23.40;1.00;;;;;;2555302;56;1926;-85
2023/05/05 09:04:59;126460.00;0.42;219.22;0.00;0.00;0.62;;;;;23.40;1.00;;;;;;2557487;55;1285;-84
2023/05/05 09:07:26;218352.00;0.73;377.51;4745.00;0.02;8.84;;;;;23.60;1.00;;;;;;2557645;55;1225;-84
2023/05/05 09:09:54;60241.00;0.20;104.89;0.00;0.00;0.62;;;;;23.60;1.00;;;;;;2555354;56;1029;-85
2023/05/05 09:12:22;118641.00;0.40;205.74;0.00;0.00;0.62;;;;;23.90;1.00;;;;;;2555534;56;1119;-85
2023/05/05 09:14:49;147897.00;0.49;256.18;0.00;0.00;0.62;;;;;23.80;1.00;;;;;;2555537;56;1377;-85
2023/05/05 09:17:33;240537.00;0.80;415.67;21413.00;0.07;37.72;;;;;23.60;1.00;;;;;;2555601;56;1102;-86
2023/05/05 09:20:06;104204.00;0.35;180.83;0.00;0.00;0.62;;;;;23.90;1.00;;;;;;2555219;56;1057;-85
2023/05/05 09:22:37;92237.00;0.31;160.17;0.00;0.00;0.62;;;;;23.80;1.00;;;;;;2557493;56;1956;-85
2023/05/05 09:25:08;137050.00;0.46;237.49;0.00;0.00;0.62;;;;;24.20;1.00;;;;;;2555605;56;1444;-86
2023/05/05 09:27:39;42379.00;0.14;74.00;0.00;0.00;0.62;;;;;24.20;1.00;;;;;;2555628;56;1120;-88
2023/05/05 09:30:07;65854.00;0.22;114.60;0.00;0.00;0.62;;;;;24.60;1.00;;;;;;2555683;56;1692;-88
2023/05/05 09:32:45;103325.00;0.34;179.31;0.00;0.00;0.62;;;;;24.70;1.00;;;;;;2555719;56;1099;-89
2023/05/05 09:35:12;116355.00;0.39;201.79;0.00;0.00;0.62;;;;;24.90;1.00;;;;;;2557793;55;1678;-88
2023/05/05 09:37:39;43517.00;0.15;75.97;0.00;0.00;0.62;;;;;24.80;1.00;;;;;;2555634;56;1107;-87
2023/05/05 09:40:10;0.00;0.00;0.62;0.00;0.00;0.62;;;;;24.90;1.00;;;;;;2558479;55;1065;-88
2023/05/05 09:42:37;32139.00;0.11;56.29;0.00;0.00;0.62;;;;;24.90;1.00;;;;;;2556314;56;1948;-86
2023/05/05 09:45:23;1415.00;0.00;3.07;0.00;0.00;0.62;;;;;24.80;1.00;;;;;;2556151;56;1439;-85
2023/05/05 09:47:50;0.00;0.00;0.62;0.00;0.00;0.62;;;;;25.10;1.00;;;;;;2556216;56;1095;-86
2023/05/05 09:50:18;0.00;0.00;0.62;0.00;0.00;0.62;;;;;25.20;1.00;;;;;;2556285;56;1102;-88
2023/05/05 09:52:54;11378.00;0.04;20.34;0.00;0.00;0.62;;;;;25.20;1.00;;;;;;2556260;56;1328;-86
2023/05/05 09:55:24;64424.00;0.21;112.12;0.00;0.00;0.62;;;;;25.20;1.00;;;;;;2556224;56;1555;-86
2023/05/05 09:57:51;8176.00;0.03;14.79;0.00;0.00;0.62;;;;;25.50;1.00;;;;;;2558431;56;1148;-88
2023/05/05 10:00:19;77528.00;0.26;134.77;0.00;0.00;0.62;;;;;25.50;1.00;;;;;;2558329;56;1001;-90
2023/05/05 10:02:46;43160.00;0.14;75.36;0.00;0.00;0.62;;;;;26.00;1.00;;;;;;2558352;56;1949;-87
2023/05/05 10:05:14;11969.00;0.04;21.36;0.00;0.00;0.62;;;;;26.30;1.00;;;;;;2556264;56;1068;-87
2023/05/05 10:07:43;64912.00;0.22;112.97;0.00;0.00;0.62;;;;;26.20;1.00;;;;;;2556311;56;1020;-88
2023/05/05 10:10:12;34176.00;0.11;59.81;0.00;0.00;0.62;;;;;26.20;1.00;;;;;;2558461;56;980;-87
2023/05/05 10:12:41;203420.00;0.68;351.81;43610.00;0.15;76.13;;;;;26.20;1.00;;;;;;2556301;56;1214;-86
2023/05/05 10:15:10;61418.00;0.20;106.93;0.00;0.00;0.62;;;;;26.50;1.00;;;;;;2556274;56;1079;-87
2023/05/05 10:17:44;8526.00;0.03;15.40;0.00;0.00;0.62;;;;;26.80;1.00;;;;;;2556044;56;992;-85
2023/05/05 10:20:14;96579.00;0.32;167.67;0.00;0.00;0.62;;;;;27.20;1.00;;;;;;2556030;56;1155;-86